sensor_id;sensor_type;location;lat;lon;timestamp;P1;durP1;ratioP1;P2;durP2;ratioP2
32790;SDS011;19143;59.322;14.502;2022-12-20T17:10:55;30.97;;;14.20;;
32790;SDS011;19143;59.322;14.502;2022-12-20T17:13:30;28.95;;;13.80;;
32790;SDS011;19143;59.322;14.502;2022-12-20T17:15:57;15.03;;;8.27;;
32790;SDS011;19143;59.322;14.502;2022-12-20T17:18:24;11.37;;;7.67;;
32790;SDS011;19143;59.322;14.502;2022-12-20T17:20:51;13.13;;;7.97;;
32790;SDS011;19143;59.322;14.502;2022-12-20T17:23:18;11.73;;;7.37;;
32790;SDS011;19143;59.322;14.502;2022-12-20T17:25:44;10.77;;;7.30;;
32790;SDS011;19143;59.322;14.502;2022-12-20T17:28:13;10.27;;;6.97;;
32790;SDS011;19143;59.322;14.502;2022-12-20T17:30:40;9.53;;;6.10;;
32790;SDS011;19143;59.322;14.502;2022-12-20T17:33:09;9.73;;;6.57;;
32790;SDS011;19143;59.322;14.502;2022-12-20T17:35:40;8.93;;;6.17;;
32790;SDS011;19143;59.322;14.502;2022-12-20T17:38:07;7.87;;;6.37;;
32790;SDS011;19143;59.322;14.502;2022-12-20T17:40:34;8.57;;;6.33;;
32790;SDS011;19143;59.322;14.502;2022-12-20T17:43:01;8.37;;;6.20;;
32790;SDS011;19143;59.322;14.502;2022-12-20T17:45:32;6.87;;;5.37;;
32790;SDS011;19143;59.322;14.502;2022-12-20T17:48:00;7.00;;;5.37;;
32790;SDS011;19143;59.322;14.502;2022-12-20T17:50:27;8.00;;;5.17;;
32790;SDS011;19143;59.322;14.502;2022-12-20T17:52:53;8.10;;;5.80;;
32790;SDS011;19143;59.322;14.502;2022-12-20T17:55:21;6.63;;;5.67;;
32790;SDS011;19143;59.322;14.502;2022-12-20T17:57:49;5.77;;;4.90;;
32790;SDS011;19143;59.322;14.502;2022-12-20T18:00:20;5.03;;;4.53;;
32790;SDS011;19143;59.322;14.502;2022-12-20T18:02:51;4.63;;;4.17;;
32790;SDS011;19143;59.322;14.502;2022-12-20T18:05:19;6.43;;;4.53;;
32790;SDS011;19143;59.322;14.502;2022-12-20T18:07:50;7.40;;;5.60;;
32790;SDS011;19143;59.322;14.502;2022-12-20T18:10:18;7.57;;;5.03;;
32790;SDS011;19143;59.322;14.502;2022-12-20T18:12:45;7.37;;;4.50;;
32790;SDS011;19143;59.322;14.502;2022-12-20T18:15:13;5.03;;;4.50;;
32790;SDS011;19143;59.322;14.502;2022-12-20T18:17:40;5.07;;;4.57;;
32790;SDS011;19143;59.322;14.502;2022-12-20T18:20:10;4.47;;;4.07;;
32790;SDS011;19143;59.322;14.502;2022-12-20T18:22:47;5.50;;;4.10;;
32790;SDS011;19143;59.322;14.502;2022-12-20T18:25:14;4.23;;;3.90;;
32790;SDS011;19143;59.322;14.502;2022-12-20T18:27:42;4.60;;;4.20;;
32790;SDS011;19143;59.322;14.502;2022-12-20T18:30:10;4.20;;;3.80;;
32790;SDS011;19143;59.322;14.502;2022-12-20T18:32:38;4.33;;;3.97;;
32790;SDS011;19143;59.322;14.502;2022-12-20T18:35:06;4.47;;;4.07;;
32790;SDS011;19143;59.322;14.502;2022-12-20T18:37:36;7.40;;;4.10;;
32790;SDS011;19143;59.322;14.502;2022-12-20T18:40:03;3.90;;;3.57;;
32790;SDS011;19143;59.322;14.502;2022-12-20T18:42:31;3.87;;;3.57;;
32790;SDS011;19143;59.322;14.502;2022-12-20T18:44:58;3.67;;;3.37;;
32790;SDS011;19143;59.322;14.502;2022-12-20T18:47:25;6.53;;;2.97;;
32790;SDS011;19143;59.322;14.502;2022-12-20T18:49:53;3.67;;;3.37;;
32790;SDS011;19143;59.322;14.502;2022-12-20T18:52:19;4.40;;;3.33;;
32790;SDS011;19143;59.322;14.502;2022-12-20T18:54:48;3.90;;;3.60;;
32790;SDS011;19143;59.322;14.502;2022-12-20T18:57:16;3.60;;;3.30;;
32790;SDS011;19143;59.322;14.502;2022-12-20T18:59:43;4.10;;;3.73;;
32790;SDS011;19143;59.322;14.502;2022-12-20T19:02:11;3.60;;;3.30;;
32790;SDS011;19143;59.322;14.502;2022-12-20T19:04:38;4.57;;;3.93;;
32790;SDS011;19143;59.322;14.502;2022-12-20T19:07:06;5.90;;;3.83;;
32790;SDS011;19143;59.322;14.502;2022-12-20T19:09:34;3.63;;;3.33;;
32790;SDS011;19143;59.322;14.502;2022-12-20T19:12:03;3.30;;;3.10;;
32790;SDS011;19143;59.322;14.502;2022-12-20T19:14:35;4.00;;;3.60;;
32790;SDS011;19143;59.322;14.502;2022-12-20T19:17:02;3.13;;;2.83;;
32790;SDS011;19143;59.322;14.502;2022-12-20T19:19:28;3.37;;;3.10;;
32790;SDS011;19143;59.322;14.502;2022-12-20T19:21:55;3.27;;;2.97;;
32790;SDS011;19143;59.322;14.502;2022-12-20T19:24:22;3.80;;;3.50;;
32790;SDS011;19143;59.322;14.502;2022-12-20T19:26:49;3.37;;;3.17;;
32790;SDS011;19143;59.322;14.502;2022-12-20T19:29:19;3.60;;;3.27;;
32790;SDS011;19143;59.322;14.502;2022-12-20T19:31:47;3.63;;;3.33;;
32790;SDS011;19143;59.322;14.502;2022-12-20T19:34:16;3.10;;;2.90;;
32790;SDS011;19143;59.322;14.502;2022-12-20T19:36:44;3.50;;;3.20;;
32790;SDS011;19143;59.322;14.502;2022-12-20T19:39:13;3.10;;;2.90;;
32790;SDS011;19143;59.322;14.502;2022-12-20T19:44:54;3.17;;;2.97;;
32790;SDS011;19143;59.322;14.502;2022-12-20T19:47:21;3.10;;;2.90;;
32790;SDS011;19143;59.322;14.502;2022-12-20T19:49:50;2.30;;;2.20;;
32790;SDS011;19143;59.322;14.502;2022-12-20T19:52:17;2.90;;;2.80;;
32790;SDS011;19143;59.322;14.502;2022-12-20T19:54:44;2.80;;;2.70;;
32790;SDS011;19143;59.322;14.502;2022-12-20T19:57:12;2.87;;;2.73;;
32790;SDS011;19143;59.322;14.502;2022-12-20T19:59:40;2.60;;;2.40;;
32790;SDS011;19143;59.322;14.502;2022-12-20T20:02:10;3.10;;;2.90;;
32790;SDS011;19143;59.322;14.502;2022-12-20T20:04:37;2.50;;;2.40;;
32790;SDS011;19143;59.322;14.502;2022-12-20T20:07:05;2.90;;;2.70;;
32790;SDS011;19143;59.322;14.502;2022-12-20T20:09:32;3.07;;;2.87;;
32790;SDS011;19143;59.322;14.502;2022-12-20T20:11:59;3.50;;;3.20;;
32790;SDS011;19143;59.322;14.502;2022-12-20T20:14:26;3.67;;;3.37;;
32790;SDS011;19143;59.322;14.502;2022-12-20T20:16:52;2.87;;;2.67;;
32790;SDS011;19143;59.322;14.502;2022-12-20T20:19:21;2.50;;;2.40;;
32790;SDS011;19143;59.322;14.502;2022-12-20T20:21:48;2.73;;;2.53;;
32790;SDS011;19143;59.322;14.502;2022-12-20T20:24:16;3.20;;;3.00;;
32790;SDS011;19143;59.322;14.502;2022-12-20T20:26:43;3.10;;;2.90;;
32790;SDS011;19143;59.322;14.502;2022-12-20T20:29:11;2.67;;;2.47;;
32790;SDS011;19143;59.322;14.502;2022-12-20T20:31:38;7.57;;;3.23;;
32790;SDS011;19143;59.322;14.502;2022-12-20T20:34:04;3.73;;;3.43;;
32790;SDS011;19143;59.322;14.502;2022-12-20T20:36:33;3.10;;;2.77;;
32790;SDS011;19143;59.322;14.502;2022-12-20T20:39:00;2.87;;;2.77;;
32790;SDS011;19143;59.322;14.502;2022-12-20T20:41:28;2.50;;;2.40;;
32790;SDS011;19143;59.322;14.502;2022-12-20T20:43:55;2.13;;;2.03;;
32790;SDS011;19143;59.322;14.502;2022-12-20T20:46:23;1.90;;;1.90;;
32790;SDS011;19143;59.322;14.502;2022-12-20T20:48:49;1.70;;;1.70;;
32790;SDS011;19143;59.322;14.502;2022-12-20T20:51:16;2.00;;;1.90;;
32790;SDS011;19143;59.322;14.502;2022-12-20T20:53:45;1.70;;;1.60;;
32790;SDS011;19143;59.322;14.502;2022-12-20T20:56:12;1.60;;;1.60;;
32790;SDS011;19143;59.322;14.502;2022-12-20T20:58:38;1.93;;;1.93;;
32790;SDS011;19143;59.322;14.502;2022-12-20T21:01:06;1.80;;;1.80;;
32790;SDS011;19143;59.322;14.502;2022-12-20T21:03:34;1.67;;;1.67;;
32790;SDS011;19143;59.322;14.502;2022-12-20T21:06:01;1.60;;;1.60;;
32790;SDS011;19143;59.322;14.502;2022-12-20T21:08:28;1.50;;;1.50;;
32790;SDS011;19143;59.322;14.502;2022-12-20T21:10:56;2.07;;;1.97;;
32790;SDS011;19143;59.322;14.502;2022-12-20T21:13:23;2.00;;;1.90;;
32790;SDS011;19143;59.322;14.502;2022-12-20T21:15:50;2.10;;;1.90;;
32790;SDS011;19143;59.322;14.502;2022-12-20T21:18:18;2.30;;;2.20;;
32790;SDS011;19143;59.322;14.502;2022-12-20T21:20:45;3.37;;;3.07;;
32790;SDS011;19143;59.322;14.502;2022-12-20T21:23:12;2.03;;;2.00;;
32790;SDS011;19143;59.322;14.502;2022-12-20T21:25:39;1.60;;;1.60;;
32790;SDS011;19143;59.322;14.502;2022-12-20T21:28:07;1.50;;;1.50;;
32790;SDS011;19143;59.322;14.502;2022-12-20T21:30:35;1.40;;;1.40;;
32790;SDS011;19143;59.322;14.502;2022-12-20T21:33:02;1.63;;;1.57;;
32790;SDS011;19143;59.322;14.502;2022-12-20T21:35:29;1.10;;;1.10;;
32790;SDS011;19143;59.322;14.502;2022-12-20T21:37:56;1.33;;;1.33;;
32790;SDS011;19143;59.322;14.502;2022-12-20T21:40:23;1.30;;;1.30;;
32790;SDS011;19143;59.322;14.502;2022-12-20T21:42:50;1.23;;;1.23;;
32790;SDS011;19143;59.322;14.502;2022-12-20T21:45:18;1.33;;;1.33;;
32790;SDS011;19143;59.322;14.502;2022-12-20T21:47:45;2.47;;;2.37;;
32790;SDS011;19143;59.322;14.502;2022-12-20T21:50:12;1.83;;;1.73;;
32790;SDS011;19143;59.322;14.502;2022-12-20T21:52:39;1.30;;;1.30;;
32790;SDS011;19143;59.322;14.502;2022-12-20T21:55:06;1.17;;;1.17;;
32790;SDS011;19143;59.322;14.502;2022-12-20T21:57:33;1.27;;;1.10;;
32790;SDS011;19143;59.322;14.502;2022-12-20T22:00:00;1.17;;;1.17;;
32790;SDS011;19143;59.322;14.502;2022-12-20T22:02:29;1.00;;;1.00;;
32790;SDS011;19143;59.322;14.502;2022-12-20T22:04:55;1.30;;;1.30;;
32790;SDS011;19143;59.322;14.502;2022-12-20T22:07:22;1.50;;;1.50;;
32790;SDS011;19143;59.322;14.502;2022-12-20T22:09:49;1.40;;;1.40;;
32790;SDS011;19143;59.322;14.502;2022-12-20T22:12:16;1.43;;;1.43;;
32790;SDS011;19143;59.322;14.502;2022-12-20T22:14:43;2.10;;;2.00;;
32790;SDS011;19143;59.322;14.502;2022-12-20T22:17:09;2.07;;;1.97;;
32790;SDS011;19143;59.322;14.502;2022-12-20T22:19:38;1.90;;;1.80;;
32790;SDS011;19143;59.322;14.502;2022-12-20T22:22:05;2.10;;;2.00;;
32790;SDS011;19143;59.322;14.502;2022-12-20T22:24:32;3.07;;;2.83;;
32790;SDS011;19143;59.322;14.502;2022-12-20T22:27:01;2.40;;;2.30;;
32790;SDS011;19143;59.322;14.502;2022-12-20T22:29:28;2.07;;;2.07;;
32790;SDS011;19143;59.322;14.502;2022-12-20T22:31:55;2.83;;;2.67;;
32790;SDS011;19143;59.322;14.502;2022-12-20T22:34:21;2.87;;;2.60;;
32790;SDS011;19143;59.322;14.502;2022-12-20T22:36:50;4.23;;;2.63;;
32790;SDS011;19143;59.322;14.502;2022-12-20T22:39:18;2.67;;;2.50;;
32790;SDS011;19143;59.322;14.502;2022-12-20T22:41:45;3.03;;;2.83;;
32790;SDS011;19143;59.322;14.502;2022-12-20T22:44:12;3.60;;;3.30;;
32790;SDS011;19143;59.322;14.502;2022-12-20T22:46:39;4.43;;;3.37;;
32790;SDS011;19143;59.322;14.502;2022-12-20T22:49:06;3.97;;;3.63;;
32790;SDS011;19143;59.322;14.502;2022-12-20T22:51:32;5.13;;;4.23;;
32790;SDS011;19143;59.322;14.502;2022-12-20T22:54:01;5.97;;;4.93;;
32790;SDS011;19143;59.322;14.502;2022-12-20T22:56:27;8.40;;;4.63;;
32790;SDS011;19143;59.322;14.502;2022-12-20T22:58:54;6.63;;;5.13;;
32790;SDS011;19143;59.322;14.502;2022-12-20T23:01:21;6.20;;;5.00;;
32790;SDS011;19143;59.322;14.502;2022-12-20T23:03:49;7.93;;;5.67;;
32790;SDS011;19143;59.322;14.502;2022-12-20T23:06:16;9.83;;;5.20;;
32790;SDS011;19143;59.322;14.502;2022-12-20T23:08:47;8.10;;;5.67;;
32790;SDS011;19143;59.322;14.502;2022-12-20T23:11:19;13.10;;;5.03;;
32790;SDS011;19143;59.322;14.502;2022-12-20T23:14:07;9.43;;;5.40;;
32790;SDS011;19143;59.322;14.502;2022-12-20T23:16:54;7.73;;;5.50;;
32790;SDS011;19143;59.322;14.502;2022-12-20T23:19:20;11.23;;;5.30;;
32790;SDS011;19143;59.322;14.502;2022-12-20T23:21:47;4.80;;;4.30;;
32790;SDS011;19143;59.322;14.502;2022-12-20T23:24:31;8.27;;;5.27;;
32790;SDS011;19143;59.322;14.502;2022-12-20T23:26:59;10.17;;;4.37;;
32790;SDS011;19143;59.322;14.502;2022-12-20T23:29:27;8.77;;;3.63;;
32790;SDS011;19143;59.322;14.502;2022-12-20T23:31:55;5.63;;;3.40;;
32790;SDS011;19143;59.322;14.502;2022-12-20T23:34:28;5.07;;;2.83;;
32790;SDS011;19143;59.322;14.502;2022-12-20T23:36:55;2.70;;;2.60;;
32790;SDS011;19143;59.322;14.502;2022-12-20T23:39:24;6.67;;;3.20;;
32790;SDS011;19143;59.322;14.502;2022-12-20T23:41:51;5.30;;;2.30;;
32790;SDS011;19143;59.322;14.502;2022-12-20T23:44:19;6.23;;;1.97;;
32790;SDS011;19143;59.322;14.502;2022-12-20T23:46:46;3.13;;;2.00;;
32790;SDS011;19143;59.322;14.502;2022-12-20T23:49:13;3.37;;;1.70;;
32790;SDS011;19143;59.322;14.502;2022-12-20T23:51:40;3.67;;;1.80;;
32790;SDS011;19143;59.322;14.502;2022-12-20T23:54:07;2.60;;;1.60;;
32790;SDS011;19143;59.322;14.502;2022-12-20T23:56:37;7.57;;;1.50;;
32790;SDS011;19143;59.322;14.502;2022-12-20T23:59:07;3.33;;;1.83;;
